Time;durP1;ratioP1;P1;durP2;ratioP2;P2;SDS_P1;SDS_P2;PMS_P1;PMS_P2;Temp;Humidity;BMP_temperature;BMP_pressure;BME280_temperature;BME280_humidity;BME280_pressure;Samples;Min_cycle;Max_cycle;Signal;HPM_P1;HPM_P2
2021/07/16 00:00:37;;;;;;;14.25;1.40;;;16.50;99.90;;;;;;1923486;74;21667;-78
2021/07/16 00:03:03;;;;;;;6.25;1.20;;;16.60;99.90;;;;;;1922570;74;21522;-78
2021/07/16 00:05:29;;;;;;;14.23;1.22;;;16.60;99.90;;;;;;1922678;73;21082;-77
2021/07/16 00:07:55;;;;;;;6.65;1.10;;;16.50;99.90;;;;;;1924118;74;21106;-77
2021/07/16 00:10:21;;;;;;;1.62;1.00;;;16.50;99.90;;;;;;1923946;74;21079;-78
2021/07/16 00:12:47;;;;;;;1.42;1.00;;;16.60;99.90;;;;;;1923934;74;21139;-77
2021/07/16 00:15:13;;;;;;;3.10;1.27;;;16.60;99.90;;;;;;1924335;74;21169;-78
2021/07/16 00:17:40;;;;;;;7.03;1.87;;;16.50;99.90;;;;;;1924270;74;21078;-78
2021/07/16 00:20:06;;;;;;;2.25;1.30;;;16.60;99.90;;;;;;1924119;74;21100;-77
2021/07/16 00:22:32;;;;;;;2.02;1.60;;;16.60;99.90;;;;;;1924099;74;21100;-77
2021/07/16 00:24:58;;;;;;;0.90;0.90;;;16.60;99.90;;;;;;1924232;74;21070;-78
2021/07/16 00:27:24;;;;;;;0.93;0.82;;;16.70;99.90;;;;;;1924035;74;21086;-78
2021/07/16 00:29:50;;;;;;;8.05;1.50;;;16.60;99.90;;;;;;1924135;73;21096;-78
2021/07/16 00:32:16;;;;;;;2.42;1.27;;;16.60;99.90;;;;;;1924011;74;21107;-78
2021/07/16 00:34:42;;;;;;;1.62;1.35;;;16.70;99.90;;;;;;1924028;74;21169;-78
2021/07/16 00:37:09;;;;;;;4.50;1.82;;;16.70;99.90;;;;;;1924017;74;21181;-78
2021/07/16 00:39:35;;;;;;;2.30;2.10;;;16.70;99.90;;;;;;1924099;74;21072;-78
2021/07/16 00:42:01;;;;;;;8.08;1.67;;;16.60;99.90;;;;;;1923950;74;21490;-78
2021/07/16 00:44:27;;;;;;;4.40;1.50;;;16.60;99.90;;;;;;1923957;74;21591;-78
2021/07/16 00:49:37;;;;;;;8.08;1.62;;;16.70;99.90;;;;;;1924112;74;21553;-78
2021/07/16 00:52:03;;;;;;;3.15;1.57;;;16.60;99.90;;;;;;1923912;74;21634;-78
2021/07/16 00:54:29;;;;;;;1.62;1.42;;;16.60;99.90;;;;;;1923819;74;21600;-78
2021/07/16 00:56:55;;;;;;;2.08;1.75;;;16.60;99.90;;;;;;1923929;74;21588;-78
2021/07/16 00:59:21;;;;;;;1.90;1.77;;;16.70;99.90;;;;;;1923910;74;21475;-77
2021/07/16 01:01:48;;;;;;;3.00;1.62;;;16.70;99.90;;;;;;1923953;74;21616;-78
2021/07/16 01:04:14;;;;;;;2.58;1.60;;;16.60;99.90;;;;;;1923964;74;21579;-78
2021/07/16 01:06:40;;;;;;;2.25;1.57;;;16.60;99.90;;;;;;1924069;74;21519;-78
2021/07/16 01:09:06;;;;;;;2.37;1.80;;;16.60;99.90;;;;;;1923879;73;21522;-78
2021/07/16 01:11:32;;;;;;;2.02;1.65;;;16.50;99.90;;;;;;1924097;74;21087;-77
2021/07/16 01:13:58;;;;;;;2.08;1.87;;;16.50;99.90;;;;;;1923901;74;21099;-77
2021/07/16 01:16:24;;;;;;;2.00;1.80;;;16.50;99.90;;;;;;1923936;73;21095;-77
2021/07/16 01:18:50;;;;;;;5.78;2.45;;;16.40;99.90;;;;;;1924012;74;21222;-78
2021/07/16 01:21:17;;;;;;;3.37;2.58;;;16.50;99.90;;;;;;1924086;74;21088;-78
2021/07/16 01:23:43;;;;;;;2.95;2.50;;;16.40;99.90;;;;;;1924001;74;21167;-78
2021/07/16 01:26:10;;;;;;;3.58;2.47;;;16.50;99.90;;;;;;1924096;73;21543;-77
2021/07/16 01:28:36;;;;;;;4.72;3.15;;;16.50;99.90;;;;;;1923849;74;21568;-77
2021/07/16 01:31:03;;;;;;;3.55;2.67;;;16.50;99.90;;;;;;1924274;74;21490;-77
2021/07/16 01:33:29;;;;;;;9.10;2.95;;;16.50;99.90;;;;;;1923965;74;21099;-77
2021/07/16 01:35:55;;;;;;;5.37;2.75;;;16.50;99.90;;;;;;1924130;74;21070;-77
2021/07/16 01:38:21;;;;;;;3.10;2.58;;;16.50;99.90;;;;;;1923920;73;21071;-77
2021/07/16 01:40:47;;;;;;;3.70;2.47;;;16.50;99.90;;;;;;1924043;74;21202;-77
2021/07/16 01:43:13;;;;;;;3.50;2.50;;;16.60;99.90;;;;;;1923886;74;21510;-77
2021/07/16 01:45:40;;;;;;;6.80;2.30;;;16.60;99.90;;;;;;1924106;74;21080;-78
2021/07/16 01:48:06;;;;;;;5.10;3.00;;;16.60;99.90;;;;;;1923860;74;21066;-77
2021/07/16 01:50:32;;;;;;;3.20;2.12;;;16.60;99.90;;;;;;1924058;74;21099;-77
2021/07/16 01:52:58;;;;;;;4.10;2.80;;;16.60;99.90;;;;;;1923885;74;21066;-77
2021/07/16 01:55:24;;;;;;;8.58;2.95;;;16.70;99.90;;;;;;1924062;74;21169;-77
2021/07/16 01:57:50;;;;;;;4.83;3.10;;;16.60;99.90;;;;;;1923878;74;21063;-77
2021/07/16 02:00:16;;;;;;;9.53;3.30;;;16.60;99.90;;;;;;1924108;74;21189;-77
2021/07/16 02:02:42;;;;;;;4.15;3.40;;;16.70;99.90;;;;;;1923871;74;21066;-78
2021/07/16 02:05:09;;;;;;;4.30;3.22;;;16.70;99.90;;;;;;1924104;74;21091;-77
2021/07/16 02:07:35;;;;;;;5.75;3.08;;;16.70;99.90;;;;;;1924037;74;21152;-77
2021/07/16 02:10:01;;;;;;;3.52;3.22;;;16.70;99.90;;;;;;1924225;74;21074;-77
2021/07/16 02:12:27;;;;;;;6.45;4.05;;;16.70;99.90;;;;;;1921757;74;21079;-78
2021/07/16 02:14:53;;;;;;;3.40;3.00;;;16.70;99.90;;;;;;1923716;74;21008;-78
2021/07/16 02:17:19;;;;;;;3.60;2.52;;;16.70;99.90;;;;;;1924284;74;21040;-78
2021/07/16 02:19:46;;;;;;;5.12;3.05;;;16.60;99.90;;;;;;1923971;74;21170;-78
2021/07/16 02:22:12;;;;;;;4.35;3.62;;;16.60;99.90;;;;;;1924145;73;21070;-78
2021/07/16 02:24:38;;;;;;;5.53;3.72;;;16.60;99.90;;;;;;1923631;74;21067;-78
2021/07/16 02:27:05;;;;;;;5.78;4.20;;;16.70;99.90;;;;;;1918273;74;21075;-78
2021/07/16 02:29:31;;;;;;;3.83;3.52;;;16.80;99.90;;;;;;1923924;74;21082;-78
2021/07/16 02:31:57;;;;;;;3.20;2.67;;;16.80;99.90;;;;;;1924177;74;21075;-78
2021/07/16 02:34:24;;;;;;;3.27;3.05;;;16.80;99.90;;;;;;1923955;74;21135;-78
2021/07/16 02:36:50;;;;;;;3.77;3.47;;;16.80;99.90;;;;;;1924063;74;21177;-78
2021/07/16 02:39:16;;;;;;;4.72;3.17;;;16.80;99.90;;;;;;1924026;74;21099;-78
2021/07/16 02:41:42;;;;;;;6.15;3.85;;;16.80;99.90;;;;;;1923221;74;21040;-78
2021/07/16 02:44:08;;;;;;;4.42;4.00;;;16.70;99.90;;;;;;1924011;74;21102;-78
2021/07/16 02:46:34;;;;;;;5.28;3.02;;;16.70;99.90;;;;;;1922960;74;21144;-78
2021/07/16 02:49:00;;;;;;;4.65;3.80;;;16.70;99.90;;;;;;1924176;74;21214;-78
2021/07/16 02:51:26;;;;;;;5.97;3.60;;;16.80;99.90;;;;;;1924158;74;21088;-78
2021/07/16 02:53:53;;;;;;;5.80;3.45;;;16.80;99.90;;;;;;1924172;74;21070;-78
2021/07/16 02:56:19;;;;;;;6.17;4.12;;;16.80;99.90;;;;;;1923984;74;21564;-77
2021/07/16 02:58:45;;;;;;;5.28;3.85;;;16.80;99.90;;;;;;1924106;74;21577;-77
2021/07/16 03:01:11;;;;;;;6.83;4.25;;;16.80;99.90;;;;;;1924121;74;21230;-78
2021/07/16 03:03:38;;;;;;;9.50;4.35;;;16.70;99.90;;;;;;1924260;74;21078;-78
2021/07/16 03:06:04;;;;;;;7.65;4.37;;;16.70;99.90;;;;;;1923956;74;21062;-78
2021/07/16 03:08:30;;;;;;;6.97;3.80;;;16.70;99.90;;;;;;1924086;74;21066;-78
2021/07/16 03:10:56;;;;;;;5.60;3.80;;;16.70;99.90;;;;;;1923952;74;21091;-78
2021/07/16 03:13:22;;;;;;;6.37;4.00;;;16.70;99.90;;;;;;1924259;74;21062;-77
2021/07/16 03:15:48;;;;;;;5.67;5.05;;;16.70;99.90;;;;;;1924188;74;21082;-77
2021/07/16 03:18:14;;;;;;;7.20;4.60;;;16.70;99.90;;;;;;1923944;74;21066;-78
2021/07/16 03:20:41;;;;;;;8.78;5.28;;;16.60;99.90;;;;;;1924225;74;21062;-77
2021/07/16 03:23:07;;;;;;;6.08;4.70;;;16.60;99.90;;;;;;1923928;74;21157;-77
2021/07/16 03:25:33;;;;;;;5.60;4.47;;;16.70;99.90;;;;;;1924090;74;21087;-78
2021/07/16 03:27:59;;;;;;;6.35;4.70;;;16.60;99.90;;;;;;1924009;74;21185;-77
2021/07/16 03:30:25;;;;;;;5.47;4.15;;;16.60;99.90;;;;;;1924141;74;21103;-77
2021/07/16 03:32:51;;;;;;;6.45;3.90;;;16.60;99.90;;;;;;1924010;74;21095;-76
2021/07/16 03:35:19;;;;;;;5.15;4.15;;;16.60;99.90;;;;;;1924306;74;21189;-76
2021/07/16 03:37:45;;;;;;;5.53;4.15;;;16.70;99.90;;;;;;1924020;73;21191;-76
2021/07/16 03:40:11;;;;;;;6.05;4.65;;;16.70;99.90;;;;;;1924189;74;21095;-77
2021/07/16 03:42:37;;;;;;;5.58;4.22;;;16.70;99.90;;;;;;1923973;74;21371;-77
2021/07/16 03:45:03;;;;;;;6.92;4.75;;;16.70;99.90;;;;;;1924244;74;21011;-77
2021/07/16 03:47:30;;;;;;;5.17;4.15;;;16.70;99.90;;;;;;1923876;74;21059;-77
2021/07/16 03:49:57;;;;;;;4.58;4.17;;;16.70;99.90;;;;;;1924180;74;21177;-77
2021/07/16 03:52:23;;;;;;;5.83;4.60;;;16.70;99.90;;;;;;1923987;74;21173;-77
2021/07/16 03:54:49;;;;;;;6.25;4.58;;;16.70;99.90;;;;;;1924126;74;21146;-77
2021/07/16 03:57:15;;;;;;;5.75;4.45;;;16.70;99.90;;;;;;1923978;74;21054;-77
2021/07/16 03:59:41;;;;;;;6.05;3.98;;;16.70;99.90;;;;;;1924270;73;21075;-77
2021/07/16 04:02:07;;;;;;;4.50;3.80;;;16.70;99.90;;;;;;1925879;74;21169;-77
2021/07/16 04:04:34;;;;;;;9.18;5.03;;;16.70;99.90;;;;;;1927872;73;21095;-76
2021/07/16 04:07:00;;;;;;;5.35;4.00;;;16.70;99.90;;;;;;1926497;73;21121;-76
2021/07/16 04:09:34;;;;;;;6.30;3.80;;;16.70;99.90;;;;;;1923948;74;21203;-77
2021/07/16 04:11:56;;;;;;;;;;;16.70;99.90;;;;;;1926161;74;21161;-77
2021/07/16 04:14:22;;;;;;;4.35;3.60;;;16.70;99.90;;;;;;1924151;74;20144;-77
2021/07/16 04:16:49;;;;;;;10.05;3.72;;;16.70;99.90;;;;;;1923932;74;21139;-77
2021/07/16 04:19:16;;;;;;;4.25;3.27;;;16.70;99.90;;;;;;1924031;74;21082;-77
2021/07/16 04:21:42;;;;;;;3.70;2.98;;;16.80;99.90;;;;;;1924094;74;21090;-77
2021/07/16 04:24:09;;;;;;;4.95;3.25;;;16.80;99.90;;;;;;1923827;74;21090;-77
2021/07/16 04:26:35;;;;;;;5.17;3.02;;;16.80;99.90;;;;;;1924134;74;21099;-77
2021/07/16 04:29:01;;;;;;;4.17;3.35;;;16.80;99.90;;;;;;1923933;74;21176;-77
2021/07/16 04:31:27;;;;;;;4.83;3.42;;;16.80;99.90;;;;;;1924152;74;21091;-76
2021/07/16 04:33:53;;;;;;;4.10;2.98;;;16.90;99.90;;;;;;1923668;74;21140;-77
2021/07/16 04:36:19;;;;;;;10.82;3.62;;;17.00;99.90;;;;;;1924122;74;21099;-77
2021/07/16 04:38:45;;;;;;;3.25;2.90;;;16.90;99.90;;;;;;1923973;74;21155;-77
2021/07/16 04:41:11;;;;;;;5.62;3.15;;;17.00;99.90;;;;;;1924097;74;21091;-77
2021/07/16 04:43:37;;;;;;;3.95;2.70;;;17.00;99.90;;;;;;1924052;74;21156;-76
2021/07/16 04:46:04;;;;;;;3.80;2.90;;;16.90;99.90;;;;;;1923912;74;21030;-77
2021/07/16 04:48:30;;;;;;;3.65;2.62;;;17.00;99.90;;;;;;1924276;74;21132;-77
2021/07/16 04:50:56;;;;;;;9.18;2.83;;;17.00;99.90;;;;;;1924114;74;21091;-76
2021/07/16 04:53:22;;;;;;;3.35;2.60;;;17.00;99.90;;;;;;1924163;74;21062;-76
2021/07/16 04:55:48;;;;;;;3.98;3.30;;;16.90;99.90;;;;;;1924208;74;21110;-76
2021/07/16 04:58:14;;;;;;;4.35;3.92;;;16.90;99.90;;;;;;1924163;74;21140;-75
2021/07/16 05:00:40;;;;;;;5.67;4.40;;;16.90;99.90;;;;;;1924203;74;21043;-76
2021/07/16 05:03:07;;;;;;;5.80;3.75;;;16.90;99.90;;;;;;1924311;74;21059;-75
2021/07/16 05:05:33;;;;;;;4.25;3.80;;;16.90;99.90;;;;;;1924104;74;21091;-76
2021/07/16 05:07:59;;;;;;;4.50;4.00;;;16.90;99.90;;;;;;1923854;74;21102;-76
2021/07/16 05:10:25;;;;;;;4.08;3.67;;;16.90;99.90;;;;;;1924100;74;21156;-76
2021/07/16 05:12:51;;;;;;;5.22;4.03;;;16.90;99.90;;;;;;1922864;73;21075;-76
2021/07/16 05:15:17;;;;;;;4.97;4.30;;;16.90;99.90;;;;;;1924050;74;21181;-75
2021/07/16 05:17:43;;;;;;;5.25;3.95;;;17.00;99.90;;;;;;1923851;74;21100;-75
2021/07/16 05:20:09;;;;;;;4.15;3.75;;;17.10;99.90;;;;;;1924145;74;21043;-75
2021/07/16 05:22:35;;;;;;;6.35;4.58;;;17.10;99.90;;;;;;1923831;74;21181;-76
2021/07/16 05:25:02;;;;;;;5.92;4.30;;;17.10;99.90;;;;;;1922984;74;21115;-74
2021/07/16 05:27:28;;;;;;;5.17;4.50;;;17.20;99.90;;;;;;1923974;74;21581;-75
2021/07/16 05:29:54;;;;;;;6.17;5.58;;;17.30;99.90;;;;;;1922839;74;21508;-78
2021/07/16 05:32:20;;;;;;;5.92;5.15;;;17.20;99.90;;;;;;1923998;74;21518;-79
2021/07/16 05:34:46;;;;;;;6.55;4.62;;;17.20;99.90;;;;;;1923985;74;21059;-76
2021/07/16 05:37:12;;;;;;;6.17;5.00;;;17.30;99.90;;;;;;1923932;74;21095;-76
2021/07/16 05:39:38;;;;;;;5.70;5.05;;;17.20;99.90;;;;;;1924045;74;21234;-76
2021/07/16 05:42:05;;;;;;;4.35;4.00;;;17.20;99.90;;;;;;1923869;74;21071;-82
2021/07/16 05:44:31;;;;;;;7.20;4.62;;;17.30;99.90;;;;;;1923835;73;21142;-75
2021/07/16 05:46:57;;;;;;;5.08;4.25;;;17.40;99.90;;;;;;1923909;74;21148;-76
2021/07/16 05:49:23;;;;;;;5.03;4.17;;;17.40;99.90;;;;;;1924057;74;21078;-75
2021/07/16 05:51:49;;;;;;;5.60;4.30;;;17.50;99.90;;;;;;1924056;74;21060;-75
2021/07/16 05:54:15;;;;;;;3.87;3.58;;;17.50;99.90;;;;;;1923931;74;21551;-75
2021/07/16 05:56:43;;;;;;;4.28;3.87;;;17.50;99.90;;;;;;1923984;74;21556;-76
2021/07/16 05:59:09;;;;;;;5.92;4.35;;;17.50;99.90;;;;;;1924013;74;21107;-75
2021/07/16 06:01:35;;;;;;;6.60;4.62;;;17.40;99.90;;;;;;1924090;74;21083;-76
2021/07/16 06:04:09;;;;;;;5.40;4.05;;;17.40;99.90;;;;;;1923921;74;21063;-75
2021/07/16 06:06:29;;;;;;;4.83;4.30;;;17.40;99.90;;;;;;1923768;74;21224;-75
2021/07/16 06:08:55;;;;;;;7.47;5.10;;;17.50;99.90;;;;;;1923915;74;21202;-75
2021/07/16 06:11:21;;;;;;;5.85;4.47;;;17.40;99.90;;;;;;1924067;74;21091;-75
2021/07/16 06:13:47;;;;;;;4.67;4.20;;;17.40;99.90;;;;;;1923792;74;21066;-75
2021/07/16 06:16:13;;;;;;;5.42;4.50;;;17.40;99.90;;;;;;1923937;74;21095;-75
2021/07/16 06:18:40;;;;;;;5.37;4.05;;;17.40;99.90;;;;;;1924065;74;21091;-75
2021/07/16 06:21:06;;;;;;;6.20;4.58;;;17.50;99.90;;;;;;1924157;74;21087;-75
2021/07/16 06:23:32;;;;;;;5.87;4.92;;;17.70;99.90;;;;;;1923984;74;21563;-74
2021/07/16 06:25:58;;;;;;;6.85;5.35;;;17.80;99.90;;;;;;1924019;74;21613;-74
2021/07/16 06:28:24;;;;;;;8.85;5.10;;;17.90;99.90;;;;;;1923890;74;21485;-76
2021/07/16 06:30:51;;;;;;;8.38;4.97;;;18.10;99.90;;;;;;1923897;74;21484;-74
2021/07/16 06:33:17;;;;;;;6.33;4.85;;;18.40;99.90;;;;;;1923982;73;21605;-75
2021/07/16 06:35:43;;;;;;;5.37;4.72;;;18.40;99.90;;;;;;1924057;74;21145;-74
2021/07/16 06:38:09;;;;;;;7.35;5.40;;;18.50;99.90;;;;;;1924125;74;21107;-74
2021/07/16 06:40:35;;;;;;;6.33;5.00;;;18.70;99.90;;;;;;1924228;74;21096;-75
2021/07/16 06:43:08;;;;;;;5.03;4.53;;;18.60;99.90;;;;;;1923909;74;21169;-76
2021/07/16 06:45:29;;;;;;;5.55;5.03;;;18.70;99.90;;;;;;1923698;74;21087;-76
2021/07/16 06:47:56;;;;;;;8.38;4.87;;;18.70;99.90;;;;;;1923875;74;21099;-75
2021/07/16 06:50:22;;;;;;;5.33;4.80;;;18.40;99.90;;;;;;1923823;74;21071;-76
2021/07/16 06:52:48;;;;;;;5.55;4.92;;;18.50;99.90;;;;;;1923988;74;21164;-76
2021/07/16 06:55:14;;;;;;;5.25;4.33;;;18.70;99.90;;;;;;1923833;74;21047;-75
2021/07/16 06:57:41;;;;;;;9.78;4.37;;;19.20;99.90;;;;;;1923899;74;21070;-76
2021/07/16 07:00:08;;;;;;;5.35;4.20;;;19.30;99.90;;;;;;1924032;74;21095;-75
2021/07/16 07:02:34;;;;;;;8.00;4.22;;;19.70;99.90;;;;;;1916385;74;21070;-76
2021/07/16 07:05:00;;;;;;;5.28;4.03;;;19.80;99.90;;;;;;1924171;74;21043;-76
2021/07/16 07:07:26;;;;;;;4.70;3.77;;;19.40;99.90;;;;;;1924147;74;21099;-76
2021/07/16 07:09:52;;;;;;;6.83;3.50;;;19.60;99.90;;;;;;1924119;74;21074;-76
2021/07/16 07:12:18;;;;;;;3.83;3.20;;;19.80;99.90;;;;;;1923807;74;21063;-74
2021/07/16 07:14:47;;;;;;;4.37;3.00;;;20.20;99.90;;;;;;1924184;74;21011;-74
2021/07/16 07:17:12;;;;;;;3.40;3.10;;;20.60;99.90;;;;;;1924076;74;21089;-76
2021/07/16 07:19:38;;;;;;;4.25;3.08;;;20.40;99.90;;;;;;1923948;74;21326;-76
2021/07/16 07:22:04;;;;;;;4.33;2.98;;;19.80;99.90;;;;;;1923963;74;21040;-75
2021/07/16 07:24:31;;;;;;;7.40;2.62;;;20.40;99.90;;;;;;1924178;74;21044;-75
2021/07/16 07:26:57;;;;;;;4.90;2.92;;;20.60;99.90;;;;;;1923971;74;21096;-75
2021/07/16 07:29:23;;;;;;;4.97;2.80;;;20.20;99.90;;;;;;1924108;74;21078;-76
2021/07/16 07:31:49;;;;;;;4.28;2.75;;;20.30;99.90;;;;;;1923986;74;21158;-76
2021/07/16 07:34:15;;;;;;;5.65;2.95;;;20.30;99.90;;;;;;1924179;74;21097;-76
2021/07/16 07:36:42;;;;;;;3.65;2.70;;;20.80;99.90;;;;;;1922802;74;21071;-76
2021/07/16 07:39:09;;;;;;;2.52;2.33;;;20.90;99.90;;;;;;1923035;74;21151;-77
2021/07/16 07:41:35;;;;;;;2.30;1.85;;;20.90;99.90;;;;;;1921085;74;21094;-76
2021/07/16 07:44:12;;;;;;;4.87;2.55;;;20.90;99.90;;;;;;1921338;74;21087;-76
2021/07/16 07:46:31;;;;;;;2.60;2.20;;;20.70;99.90;;;;;;1920278;74;21103;-75
2021/07/16 07:48:57;;;;;;;2.62;2.42;;;20.60;99.90;;;;;;1916048;74;21071;-76
2021/07/16 07:51:23;;;;;;;5.70;2.20;;;20.10;99.90;;;;;;1923926;74;21091;-76
2021/07/16 07:53:49;;;;;;;2.77;2.58;;;20.20;99.90;;;;;;1916132;74;21110;-76
2021/07/16 07:56:15;;;;;;;2.37;2.17;;;20.10;99.90;;;;;;1923932;74;21144;-76
2021/07/16 07:58:41;;;;;;;10.65;2.75;;;20.20;99.90;;;;;;1924131;74;21027;-76
2021/07/16 08:01:07;;;;;;;3.20;2.45;;;20.50;99.90;;;;;;1923969;73;21176;-76
2021/07/16 08:03:34;;;;;;;4.25;2.12;;;20.60;99.90;;;;;;1924155;74;21177;-76
2021/07/16 08:06:00;;;;;;;2.80;1.77;;;20.90;99.90;;;;;;1923970;74;21103;-75
2021/07/16 08:08:27;;;;;;;4.83;3.00;;;21.00;99.90;;;;;;1924144;74;21145;-75
2021/07/16 08:10:53;;;;;;;4.72;2.55;;;21.30;99.90;;;;;;1924048;74;21056;-75
2021/07/16 08:13:19;;;;;;;3.75;3.00;;;21.30;99.90;;;;;;1924046;74;21138;-75
2021/07/16 08:15:45;;;;;;;8.33;4.12;;;21.20;99.90;;;;;;1924087;74;21087;-75
2021/07/16 08:18:11;;;;;;;4.85;3.83;;;21.20;99.90;;;;;;1924043;74;21095;-75
2021/07/16 08:20:37;;;;;;;5.17;3.52;;;21.20;99.90;;;;;;1923999;74;21080;-75
2021/07/16 08:23:03;;;;;;;6.05;3.87;;;21.20;99.90;;;;;;1924024;74;21131;-75
2021/07/16 08:25:30;;;;;;;7.15;4.12;;;21.00;99.90;;;;;;1924073;74;21131;-75
2021/07/16 08:27:57;;;;;;;5.00;3.58;;;20.70;99.90;;;;;;1924007;74;21535;-75
2021/07/16 08:30:23;;;;;;;4.92;3.90;;;20.70;99.90;;;;;;1924046;74;21550;-75
2021/07/16 08:32:50;;;;;;;6.35;4.12;;;20.60;99.90;;;;;;1924160;74;21150;-76
2021/07/16 08:35:16;;;;;;;4.65;3.67;;;20.90;99.90;;;;;;1924148;74;21088;-75
2021/07/16 08:37:42;;;;;;;3.80;3.15;;;21.10;99.90;;;;;;1924119;74;21169;-75
2021/07/16 08:40:08;;;;;;;6.25;3.55;;;21.10;99.90;;;;;;1924098;74;21067;-76
2021/07/16 08:42:34;;;;;;;5.67;3.92;;;21.40;99.90;;;;;;1924186;74;21088;-75
2021/07/16 08:45:00;;;;;;;4.20;3.67;;;21.70;99.90;;;;;;1924118;74;21099;-75
2021/07/16 08:47:26;;;;;;;4.75;4.20;;;21.50;99.90;;;;;;1924236;74;21087;-75
2021/07/16 08:49:53;;;;;;;6.92;3.20;;;21.20;99.90;;;;;;1923981;74;21152;-75
2021/07/16 08:52:20;;;;;;;3.87;2.98;;;21.40;99.90;;;;;;1927067;73;21162;-75
2021/07/16 08:54:49;;;;;;;7.72;3.08;;;22.10;99.90;;;;;;1927735;73;21027;-76
2021/07/16 08:57:15;;;;;;;4.17;2.98;;;22.50;99.90;;;;;;1925060;73;21055;-75
2021/07/16 08:59:42;;;;;;;4.40;3.00;;;22.40;99.90;;;;;;1924224;73;21535;-76
2021/07/16 09:02:08;;;;;;;4.67;2.85;;;21.90;99.90;;;;;;1924003;74;21111;-75
2021/07/16 09:04:34;;;;;;;3.27;2.87;;;21.80;99.90;;;;;;1923938;74;21115;-75
2021/07/16 09:07:01;;;;;;;3.92;2.40;;;21.70;99.90;;;;;;1924193;74;21188;-75
2021/07/16 09:09:35;;;;;;;2.72;2.52;;;21.90;99.90;;;;;;1924007;74;21122;-75
2021/07/16 09:11:55;;;;;;;3.17;2.65;;;21.80;99.90;;;;;;1923474;74;21087;-75
2021/07/16 09:14:21;;;;;;;3.58;2.65;;;22.20;99.90;;;;;;1924076;74;21092;-75
2021/07/16 09:16:47;;;;;;;3.87;2.40;;;22.60;99.90;;;;;;1924120;74;21100;-75
2021/07/16 09:19:14;;;;;;;7.78;2.30;;;23.00;99.90;;;;;;1924252;74;21072;-76
2021/07/16 09:21:40;;;;;;;2.12;2.00;;;23.30;99.90;;;;;;1924183;74;21235;-75
2021/07/16 09:24:06;;;;;;;2.22;2.02;;;22.70;99.90;;;;;;1924083;74;21071;-75
2021/07/16 09:26:37;;;;;;;2.10;1.65;;;22.20;99.90;;;;;;1923975;74;21144;-76
2021/07/16 09:29:00;;;;;;;5.35;1.90;;;22.10;99.90;;;;;;1923158;73;21154;-75
2021/07/16 09:31:27;;;;;;;3.77;2.27;;;22.20;99.90;;;;;;1923752;74;21103;-75
2021/07/16 09:33:54;;;;;;;2.72;2.40;;;22.40;99.90;;;;;;1924095;74;21197;-76
2021/07/16 09:36:20;;;;;;;2.47;1.80;;;22.20;99.90;;;;;;1924096;74;21115;-75
2021/07/16 09:38:46;;;;;;;2.02;1.82;;;22.00;99.90;;;;;;1924021;74;21173;-76
2021/07/16 09:41:15;;;;;;;4.72;2.20;;;22.10;99.90;;;;;;1924443;74;21103;-75
2021/07/16 09:43:40;;;;;;;2.52;1.98;;;22.10;99.90;;;;;;1925205;73;21080;-79
2021/07/16 09:46:06;;;;;;;1.98;1.75;;;22.00;99.90;;;;;;1924132;74;21047;-80
2021/07/16 09:48:36;;;;;;;1.60;1.50;;;22.20;99.90;;;;;;1924122;74;21108;-79
2021/07/16 09:51:02;;;;;;;1.52;1.42;;;22.00;99.90;;;;;;1921921;74;21483;-76
2021/07/16 09:53:29;;;;;;;1.98;1.57;;;22.60;99.90;;;;;;1922915;74;21498;-76
2021/07/16 09:55:56;;;;;;;1.27;1.17;;;23.00;99.90;;;;;;1924266;74;21192;-74
2021/07/16 09:58:22;;;;;;;4.62;0.85;;;23.50;99.90;;;;;;1920797;74;21184;-78
2021/07/16 10:00:48;;;;;;;2.10;0.90;;;23.70;99.90;;;;;;1923834;74;21087;-79
2021/07/16 10:03:14;;;;;;;1.20;1.10;;;22.70;99.90;;;;;;1920959;74;21132;-75
2021/07/16 10:05:40;;;;;;;2.95;1.30;;;22.90;99.90;;;;;;1924170;74;21174;-74
2021/07/16 10:08:08;;;;;;;2.40;1.10;;;23.50;99.90;;;;;;1924168;73;21088;-77
2021/07/16 10:10:34;;;;;;;1.55;1.15;;;24.40;99.90;;;;;;1924067;74;21200;-77
2021/07/16 10:13:00;;;;;;;1.57;1.27;;;24.80;99.90;;;;;;1924272;73;21091;-81
2021/07/16 10:15:27;;;;;;;1.22;1.15;;;24.70;99.90;;;;;;1923719;74;21092;-79
2021/07/16 10:17:53;;;;;;;0.88;0.88;;;24.80;99.90;;;;;;1923988;74;21133;-77
2021/07/16 10:20:19;;;;;;;1.12;0.93;;;24.50;99.90;;;;;;1923994;74;21123;-78
2021/07/16 10:22:45;;;;;;;1.10;1.10;;;24.80;99.90;;;;;;1923988;74;21177;-75
2021/07/16 10:25:11;;;;;;;2.65;1.50;;;24.80;99.90;;;;;;1923898;74;21039;-76
2021/07/16 10:27:37;;;;;;;1.42;1.32;;;25.30;99.90;;;;;;1924107;74;21093;-80
2021/07/16 10:30:03;;;;;;;1.40;1.30;;;24.90;99.90;;;;;;1923975;74;21078;-81
2021/07/16 10:32:29;;;;;;;4.97;1.57;;;24.80;99.90;;;;;;1924199;74;21154;-80
2021/07/16 10:34:55;;;;;;;2.17;1.60;;;24.30;99.90;;;;;;1924150;74;21084;-81
2021/07/16 10:37:22;;;;;;;3.33;1.67;;;24.40;99.90;;;;;;1924344;73;21192;-82
2021/07/16 10:39:49;;;;;;;1.32;1.22;;;24.80;99.90;;;;;;1924208;74;21573;-81
2021/07/16 10:42:16;;;;;;;1.30;1.20;;;25.40;99.90;;;;;;1924223;74;21087;-81
2021/07/16 10:44:42;;;;;;;1.35;1.25;;;25.10;99.90;;;;;;1924108;74;21095;-81
2021/07/16 10:47:08;;;;;;;1.82;1.17;;;25.10;99.90;;;;;;1923993;74;21087;-81
2021/07/16 10:49:34;;;;;;;1.80;1.10;;;25.00;99.90;;;;;;1924224;74;21070;-80
2021/07/16 10:52:00;;;;;;;1.65;1.00;;;24.80;99.90;;;;;;1924124;74;21104;-82
2021/07/16 10:54:26;;;;;;;2.65;1.00;;;25.20;99.90;;;;;;1924233;73;21083;-81
2021/07/16 10:56:52;;;;;;;1.72;0.95;;;25.20;99.90;;;;;;1924016;73;21069;-81
2021/07/16 10:59:18;;;;;;;3.15;0.80;;;25.20;99.90;;;;;;1924321;74;21103;-82
2021/07/16 11:01:45;;;;;;;1.82;1.10;;;25.00;99.90;;;;;;1924159;74;21099;-80
2021/07/16 11:04:11;;;;;;;0.80;0.80;;;25.60;99.90;;;;;;1924099;74;21080;-82
2021/07/16 11:06:37;;;;;;;1.65;0.80;;;25.50;99.90;;;;;;1924148;74;21435;-83
2021/07/16 11:09:03;;;;;;;1.05;0.80;;;25.40;99.90;;;;;;1924232;74;21622;-83
2021/07/16 11:11:29;;;;;;;0.80;0.80;;;24.90;99.90;;;;;;1924476;74;21516;-83
2021/07/16 11:13:55;;;;;;;1.12;0.90;;;25.10;99.90;;;;;;1924023;74;21487;-82
2021/07/16 11:16:25;;;;;;;0.72;0.72;;;25.40;99.90;;;;;;1924228;73;21040;-82
2021/07/16 11:18:52;;;;;;;4.03;1.20;;;24.90;99.90;;;;;;1924383;74;21095;-83
2021/07/16 11:21:18;;;;;;;1.15;1.00;;;24.90;99.90;;;;;;1924130;74;21119;-82
2021/07/16 11:23:44;;;;;;;1.30;1.20;;;24.40;99.90;;;;;;1923928;74;21066;-81
2021/07/16 11:26:10;;;;;;;1.37;1.05;;;24.20;99.90;;;;;;1923918;73;21118;-83
2021/07/16 11:28:36;;;;;;;1.82;1.12;;;24.20;99.90;;;;;;1923965;74;21071;-84
2021/07/16 11:31:02;;;;;;;2.20;1.05;;;24.70;99.90;;;;;;1924141;74;21067;-83
2021/07/16 11:33:28;;;;;;;1.77;0.88;;;25.20;99.90;;;;;;1924422;74;21185;-83
2021/07/16 11:35:59;;;;;;;1.95;1.27;;;25.60;99.90;;;;;;1925959;73;21067;-83
2021/07/16 11:38:22;;;;;;;1.62;0.90;;;25.00;99.90;;;;;;1925017;74;21099;-83
2021/07/16 11:40:48;;;;;;;0.80;0.80;;;25.00;99.90;;;;;;1923884;74;21059;-83
2021/07/16 11:43:15;;;;;;;2.40;1.10;;;25.10;99.90;;;;;;1923960;74;21431;-83
2021/07/16 11:45:43;;;;;;;1.62;0.75;;;24.70;99.90;;;;;;1923775;73;21140;-85
2021/07/16 11:48:09;;;;;;;2.58;1.00;;;25.20;99.90;;;;;;1923671;73;21500;-84
2021/07/16 11:50:35;;;;;;;1.15;0.90;;;25.40;99.90;;;;;;1923569;74;21063;-82
2021/07/16 11:53:01;;;;;;;0.90;0.90;;;25.30;99.90;;;;;;1924196;74;21459;-83
2021/07/16 11:55:29;;;;;;;1.98;0.80;;;25.00;99.90;;;;;;1924242;74;21479;-84
2021/07/16 11:57:55;;;;;;;0.70;0.70;;;25.50;99.90;;;;;;1924200;74;21092;-84
2021/07/16 12:00:21;;;;;;;0.75;0.75;;;26.40;99.90;;;;;;1924807;74;21177;-83
2021/07/16 12:02:47;;;;;;;0.60;0.60;;;26.40;99.90;;;;;;1924966;74;21096;-82
2021/07/16 12:05:15;;;;;;;1.77;0.80;;;26.30;99.90;;;;;;1924608;74;21253;-82
2021/07/16 12:07:41;;;;;;;1.40;1.00;;;26.20;99.90;;;;;;1924328;74;21107;-81
2021/07/16 12:10:07;;;;;;;0.85;0.75;;;26.10;99.90;;;;;;1924203;74;21132;-81
2021/07/16 12:12:35;;;;;;;0.98;0.80;;;25.80;99.90;;;;;;1924483;74;21090;-79
2021/07/16 12:15:05;;;;;;;0.80;0.80;;;25.30;99.90;;;;;;1924116;74;21163;-80
2021/07/16 12:17:31;;;;;;;1.92;0.90;;;25.30;99.90;;;;;;1924833;74;21113;-80
2021/07/16 12:19:57;;;;;;;1.12;1.00;;;25.40;99.90;;;;;;1924347;74;21164;-80
2021/07/16 12:22:23;;;;;;;2.90;1.10;;;25.10;99.90;;;;;;1923674;73;21078;-81
2021/07/16 12:24:51;;;;;;;0.95;0.93;;;24.60;99.90;;;;;;1924164;74;21580;-80
2021/07/16 12:27:17;;;;;;;2.05;0.88;;;24.40;99.90;;;;;;1923384;74;21172;-80
2021/07/16 12:29:43;;;;;;;1.17;0.90;;;24.20;99.90;;;;;;1923093;74;21090;-81
2021/07/16 12:32:09;;;;;;;0.80;0.70;;;23.80;99.90;;;;;;1924155;74;21538;-81
2021/07/16 12:34:35;;;;;;;1.12;1.02;;;23.50;99.90;;;;;;1923727;73;21462;-80
2021/07/16 12:37:01;;;;;;;1.32;0.95;;;23.20;99.90;;;;;;1924087;74;21071;-81
2021/07/16 12:39:29;;;;;;;5.37;1.30;;;23.00;99.90;;;;;;1924134;74;21044;-80
2021/07/16 12:41:57;;;;;;;1.75;0.95;;;22.90;99.90;;;;;;1923917;74;21099;-80
2021/07/16 12:44:23;;;;;;;2.05;1.02;;;22.90;99.90;;;;;;1923971;74;21066;-80